Time;durP1;ratioP1;P1;durP2;ratioP2;P2;SDS_P1;SDS_P2;PMS_P1;PMS_P2;Temp;Humidity;BMP_temperature;BMP_pressure;BME280_temperature;BME280_humidity;BME280_pressure;Samples;Min_cycle;Max_cycle;Signal;HPM_P1;HPM_P2
2021/01/23 00:02:01;;;;;;;3.43;2.20;;;0.70;99.90;;;;;;5032050;28;20620;-62
2021/01/23 00:04:27;;;;;;;2.23;2.10;;;0.60;99.90;;;;;;5032279;28;20395;-63
2021/01/23 00:06:52;;;;;;;2.50;2.10;;;0.70;99.90;;;;;;5032120;28;20665;-63
2021/01/23 00:09:18;;;;;;;3.97;2.33;;;0.60;99.90;;;;;;5032016;28;20714;-63
2021/01/23 00:11:43;;;;;;;2.77;2.20;;;0.70;99.90;;;;;;5031722;28;20218;-62
2021/01/23 00:14:09;;;;;;;3.63;2.40;;;0.70;99.90;;;;;;5031931;28;20538;-60
2021/01/23 00:16:34;;;;;;;2.87;2.67;;;0.80;99.90;;;;;;5032044;28;20169;-63
2021/01/23 00:19:00;;;;;;;2.03;1.93;;;0.80;99.90;;;;;;5032566;28;20207;-62
2021/01/23 00:21:25;;;;;;;3.03;2.93;;;0.90;99.90;;;;;;5031421;28;20567;-63
2021/01/23 00:23:51;;;;;;;2.63;2.50;;;0.90;99.90;;;;;;5031700;28;20190;-62
2021/01/23 00:26:16;;;;;;;3.00;2.47;;;0.90;99.90;;;;;;5031940;28;20183;-63
2021/01/23 00:28:42;;;;;;;2.73;2.63;;;1.00;99.90;;;;;;5031651;28;20654;-63
2021/01/23 00:31:07;;;;;;;2.63;2.43;;;1.00;99.90;;;;;;5031554;28;20295;-62
2021/01/23 00:33:33;;;;;;;2.67;2.47;;;1.00;99.90;;;;;;5031663;28;20659;-62
2021/01/23 00:35:59;;;;;;;2.37;2.27;;;1.00;99.90;;;;;;5031902;28;20745;-63
2021/01/23 00:38:24;;;;;;;3.23;2.60;;;0.90;99.90;;;;;;5031898;28;20183;-63
2021/01/23 00:40:50;;;;;;;4.57;2.30;;;1.00;99.90;;;;;;5031296;28;20214;-63
2021/01/23 00:43:15;;;;;;;3.47;2.23;;;0.90;99.90;;;;;;5031605;28;20718;-63
2021/01/23 00:45:41;;;;;;;2.27;2.17;;;0.90;99.90;;;;;;5031073;28;20167;-63
2021/01/23 00:48:07;;;;;;;9.20;3.07;;;0.90;99.90;;;;;;5031525;28;20164;-63
2021/01/23 00:50:33;;;;;;;4.13;2.83;;;1.00;99.90;;;;;;5031374;28;20686;-63
2021/01/23 00:52:58;;;;;;;3.03;2.83;;;0.90;99.90;;;;;;5031514;28;20526;-63
2021/01/23 00:55:24;;;;;;;4.23;2.67;;;1.00;99.90;;;;;;5031690;28;20566;-63
2021/01/23 00:57:49;;;;;;;3.60;3.30;;;1.00;99.90;;;;;;5031485;28;20190;-63
2021/01/23 01:00:16;;;;;;;2.23;2.03;;;1.00;99.90;;;;;;5031198;28;20219;-62
2021/01/23 01:02:41;;;;;;;3.15;2.95;;;1.00;99.90;;;;;;5031391;28;20168;-63
2021/01/23 01:05:08;;;;;;;2.70;2.60;;;1.00;99.90;;;;;;5031363;28;20179;-63
2021/01/23 01:07:33;;;;;;;3.50;3.13;;;1.10;99.90;;;;;;5031439;28;20210;-62
2021/01/23 01:09:59;;;;;;;3.57;3.27;;;1.00;99.90;;;;;;5031968;28;20415;-63
2021/01/23 01:12:24;;;;;;;2.50;2.40;;;1.10;99.90;;;;;;5035303;28;20180;-63
2021/01/23 01:14:50;;;;;;;4.07;3.30;;;1.10;99.90;;;;;;5035287;28;20191;-63
2021/01/23 01:17:15;;;;;;;3.93;3.63;;;1.10;99.90;;;;;;5035230;28;20171;-63
2021/01/23 01:19:42;;;;;;;3.43;3.20;;;1.10;99.90;;;;;;5034663;28;20175;-63
2021/01/23 01:22:08;;;;;;;4.10;3.00;;;1.00;99.90;;;;;;5035068;28;20188;-63
2021/01/23 01:24:33;;;;;;;5.33;3.53;;;1.10;99.90;;;;;;5035168;28;20412;-63
2021/01/23 01:26:59;;;;;;;8.73;4.37;;;1.20;99.90;;;;;;5035054;28;20592;-63
2021/01/23 01:29:25;;;;;;;4.00;3.70;;;1.20;99.90;;;;;;5035020;28;20687;-62
2021/01/23 01:31:50;;;;;;;5.33;3.63;;;1.20;99.90;;;;;;5034743;28;20179;-62
2021/01/23 01:34:16;;;;;;;6.47;4.63;;;1.30;99.90;;;;;;5034695;28;20541;-63
2021/01/23 01:36:41;;;;;;;12.67;4.53;;;1.20;99.90;;;;;;5034551;28;20222;-63
2021/01/23 01:39:07;;;;;;;5.73;4.27;;;1.30;99.90;;;;;;5034688;28;20168;-63
2021/01/23 01:41:36;;;;;;;5.33;4.93;;;1.30;99.90;;;;;;5034338;28;20779;-63
2021/01/23 01:44:02;;;;;;;4.30;3.83;;;1.20;99.90;;;;;;5034783;28;20164;-63
2021/01/23 01:46:27;;;;;;;7.70;5.40;;;1.20;99.90;;;;;;5034697;28;20198;-63
2021/01/23 01:48:53;;;;;;;5.53;4.53;;;1.30;99.90;;;;;;5034501;28;20558;-63
2021/01/23 01:51:18;;;;;;;5.80;5.30;;;1.20;99.90;;;;;;5033755;28;20191;-63
2021/01/23 01:53:44;;;;;;;5.17;4.77;;;1.30;99.90;;;;;;5034572;28;20264;-63
2021/01/23 01:56:10;;;;;;;5.30;4.27;;;1.30;99.90;;;;;;5034617;28;20180;-62
2021/01/23 01:58:35;;;;;;;6.67;4.97;;;1.30;99.90;;;;;;5034439;28;20436;-62
2021/01/23 02:01:01;;;;;;;5.17;4.70;;;1.30;99.90;;;;;;5034064;28;20199;-63
2021/01/23 02:04:01;;;;;;;6.83;4.87;;;1.40;99.90;;;;;;5034425;28;20173;-62
2021/01/23 02:07:11;;;;;;;6.00;4.67;;;1.50;99.90;;;;;;5034116;28;20187;-63
2021/01/23 02:10:19;;;;;;;7.33;6.30;;;1.40;99.90;;;;;;5030691;28;20426;-62
2021/01/23 02:12:58;;;;;;;6.70;6.07;;;1.40;99.90;;;;;;5034131;28;20396;-62
2021/01/23 02:15:28;;;;;;;5.80;5.30;;;1.30;99.90;;;;;;5034228;28;20391;-63
2021/01/23 02:18:06;;;;;;;5.97;5.25;;;1.30;99.90;;;;;;5034020;28;20398;-62
2021/01/23 02:20:47;;;;;;;8.20;5.17;;;1.30;99.90;;;;;;5033635;28;20207;-62
2021/01/23 02:23:32;;;;;;;6.97;6.30;;;1.30;99.90;;;;;;5033165;28;20409;-63
2021/01/23 02:26:11;;;;;;;5.47;4.43;;;1.30;99.90;;;;;;5034052;28;20990;-62
2021/01/23 02:29:07;;;;;;;8.63;4.53;;;1.30;99.90;;;;;;5033908;28;20452;-63
2021/01/23 02:31:42;;;;;;;7.15;6.65;;;1.30;99.90;;;;;;5033457;28;20429;-63
2021/01/23 02:34:11;;;;;;;6.37;5.73;;;1.30;99.90;;;;;;5033858;28;20162;-63
2021/01/23 02:36:41;;;;;;;5.40;5.00;;;1.40;99.90;;;;;;5033539;28;20924;-64
2021/01/23 02:39:07;;;;;;;5.35;4.85;;;1.40;99.90;;;;;;5033586;28;20167;-62
2021/01/23 02:41:34;;;;;;;6.80;5.70;;;1.40;99.90;;;;;;5033174;28;20230;-62
2021/01/23 02:43:59;;;;;;;5.13;4.63;;;1.40;99.90;;;;;;5033554;28;20409;-63
2021/01/23 02:46:25;;;;;;;6.10;4.97;;;1.40;99.90;;;;;;5033652;28;20410;-63
2021/01/23 02:48:51;;;;;;;4.83;4.43;;;1.40;99.90;;;;;;5033523;28;20599;-63
2021/01/23 02:51:50;;;;;;;5.33;4.83;;;1.40;99.90;;;;;;5033041;28;20465;-63
2021/01/23 02:54:27;;;;;;;7.82;5.60;;;1.40;99.90;;;;;;5033187;28;20820;-63
2021/01/23 02:56:55;;;;;;;6.40;5.80;;;1.40;99.90;;;;;;5033583;28;20309;-62
2021/01/23 02:59:23;;;;;;;7.88;5.65;;;1.50;99.90;;;;;;5033288;28;20492;-62
2021/01/23 03:01:50;;;;;;;4.97;4.50;;;1.50;99.90;;;;;;5032788;28;20211;-63
2021/01/23 03:04:19;;;;;;;5.03;4.53;;;1.60;99.90;;;;;;5033162;28;20780;-63
2021/01/23 03:06:45;;;;;;;6.82;5.38;;;1.60;99.90;;;;;;5033053;28;20412;-63
2021/01/23 03:09:20;;;;;;;6.63;5.30;;;1.60;99.90;;;;;;5033046;28;20499;-63
2021/01/23 03:11:46;;;;;;;7.63;5.72;;;1.50;99.90;;;;;;5032738;28;20206;-63
2021/01/23 03:14:12;;;;;;;8.95;5.45;;;1.50;99.90;;;;;;5032991;28;20198;-62
2021/01/23 03:16:38;;;;;;;4.63;4.20;;;1.60;99.90;;;;;;5033195;28;20657;-63
2021/01/23 03:19:04;;;;;;;8.77;6.10;;;1.50;99.90;;;;;;5032840;28;21018;-63
2021/01/23 03:21:30;;;;;;;7.47;4.90;;;1.60;99.90;;;;;;5032532;28;20457;-63
2021/01/23 03:23:56;;;;;;;5.93;5.43;;;1.60;99.90;;;;;;5032829;28;20403;-62
2021/01/23 03:26:22;;;;;;;8.90;6.57;;;1.70;99.90;;;;;;5032584;28;20401;-63
2021/01/23 03:28:48;;;;;;;7.60;6.30;;;1.70;99.90;;;;;;5032547;28;20177;-63
2021/01/23 03:31:13;;;;;;;6.83;5.20;;;1.70;99.90;;;;;;5032240;28;20426;-63
2021/01/23 03:33:39;;;;;;;10.67;7.20;;;1.60;99.90;;;;;;5032360;28;20209;-63
2021/01/23 03:36:05;;;;;;;11.47;6.40;;;1.60;99.90;;;;;;5032563;28;20220;-62
2021/01/23 03:38:30;;;;;;;7.32;6.47;;;1.60;99.90;;;;;;5032631;28;20207;-63
2021/01/23 03:40:56;;;;;;;8.53;5.77;;;1.70;99.90;;;;;;5031961;28;20206;-62
2021/01/23 03:43:21;;;;;;;10.17;7.17;;;1.70;99.90;;;;;;5032666;28;20627;-63
2021/01/23 03:45:47;;;;;;;10.20;7.80;;;1.80;99.90;;;;;;5032540;28;20172;-62
2021/01/23 03:48:12;;;;;;;10.37;7.10;;;1.80;99.90;;;;;;5032392;28;20195;-62
2021/01/23 03:50:38;;;;;;;9.13;7.70;;;1.90;99.90;;;;;;5031897;28;20690;-62
2021/01/23 03:53:03;;;;;;;8.10;7.30;;;1.90;99.90;;;;;;5032284;28;20199;-62
2021/01/23 03:55:29;;;;;;;12.00;7.33;;;1.80;99.90;;;;;;5031921;28;20175;-62
2021/01/23 03:57:55;;;;;;;9.33;7.33;;;1.90;99.90;;;;;;5032025;28;20183;-62
2021/01/23 04:00:21;;;;;;;9.83;8.07;;;1.90;99.90;;;;;;5031701;28;20212;-62
2021/01/23 04:02:46;;;;;;;10.03;7.70;;;1.90;99.90;;;;;;5032117;28;20171;-63
2021/01/23 04:05:13;;;;;;;9.57;8.07;;;1.90;99.90;;;;;;5032050;28;20417;-62
2021/01/23 04:07:38;;;;;;;9.87;7.20;;;2.00;99.90;;;;;;5032393;28;20182;-62
2021/01/23 04:10:06;;;;;;;12.13;6.60;;;2.60;99.90;;;;;;5031639;28;20437;-62
2021/01/23 04:12:32;;;;;;;15.68;8.88;;;2.10;99.90;;;;;;5032114;28;20169;-62
2021/01/23 04:14:58;;;;;;;9.47;7.00;;;2.10;99.90;;;;;;5031700;28;20185;-62
2021/01/23 04:17:24;;;;;;;11.30;7.63;;;2.10;99.90;;;;;;5031959;28;20860;-62
2021/01/23 04:19:49;;;;;;;10.50;8.63;;;2.10;99.90;;;;;;5031412;28;20507;-62
2021/01/23 04:22:15;;;;;;;12.60;8.37;;;2.00;99.90;;;;;;5031980;28;20171;-61
2021/01/23 04:24:40;;;;;;;11.83;7.70;;;2.10;99.90;;;;;;5032026;28;20182;-62
2021/01/23 04:27:06;;;;;;;9.33;8.43;;;2.10;99.90;;;;;;5031979;28;20276;-62
2021/01/23 04:29:31;;;;;;;10.90;7.57;;;2.10;99.90;;;;;;5031648;28;20172;-62
2021/01/23 04:31:57;;;;;;;8.23;6.30;;;2.10;99.90;;;;;;5031472;28;20193;-62
2021/01/23 04:34:22;;;;;;;8.60;6.63;;;2.10;99.90;;;;;;5031812;28;20314;-62
2021/01/23 04:36:48;;;;;;;7.80;5.97;;;2.10;99.90;;;;;;5031850;28;20180;-62
2021/01/23 04:39:14;;;;;;;10.60;7.57;;;2.10;99.90;;;;;;5031715;28;20183;-62
2021/01/23 04:41:39;;;;;;;7.63;6.97;;;2.10;99.90;;;;;;5031356;28;20211;-62
2021/01/23 04:44:06;;;;;;;9.63;6.73;;;2.10;99.90;;;;;;5031757;28;20182;-62
2021/01/23 04:46:32;;;;;;;7.77;5.97;;;2.10;99.90;;;;;;5035423;28;20176;-62
2021/01/23 04:48:58;;;;;;;10.23;7.30;;;2.20;99.90;;;;;;5035516;28;20407;-62
2021/01/23 04:51:25;;;;;;;10.10;6.73;;;2.30;99.90;;;;;;5035320;28;20427;-62
2021/01/23 04:53:51;;;;;;;9.67;6.77;;;2.20;99.90;;;;;;5035652;28;20230;-62
2021/01/23 04:56:17;;;;;;;8.93;6.13;;;2.30;99.90;;;;;;5035799;28;20452;-62
2021/01/23 04:58:43;;;;;;;9.50;7.67;;;2.20;99.90;;;;;;5035617;28;20175;-62
2021/01/23 05:01:13;;;;;;;10.70;6.57;;;2.20;99.90;;;;;;5035117;28;20211;-62
2021/01/23 05:03:58;;;;;;;17.00;7.53;;;2.20;99.90;;;;;;5035320;28;20469;-62
2021/01/23 05:06:25;;;;;;;10.00;6.93;;;2.30;99.90;;;;;;5035642;28;20409;-62
2021/01/23 05:08:50;;;;;;;8.70;7.32;;;2.20;99.90;;;;;;5035348;28;20399;-62
2021/01/23 05:11:16;;;;;;;8.43;7.53;;;2.30;99.90;;;;;;5035143;28;20192;-62
2021/01/23 05:14:08;;;;;;;10.30;8.27;;;2.30;99.90;;;;;;5035351;28;20595;-62
2021/01/23 05:16:34;;;;;;;10.38;8.57;;;2.30;99.90;;;;;;5035552;28;20185;-62
2021/01/23 05:19:01;;;;;;;11.73;8.10;;;2.30;99.90;;;;;;5034983;28;20647;-62
2021/01/23 05:21:28;;;;;;;13.17;8.17;;;2.30;99.90;;;;;;5034764;28;20493;-62
2021/01/23 05:24:05;;;;;;;9.60;7.37;;;2.30;99.90;;;;;;5035113;28;20409;-62
2021/01/23 05:26:31;;;;;;;10.70;7.60;;;2.30;99.90;;;;;;5035025;28;20493;-63
2021/01/23 05:29:12;;;;;;;9.57;6.90;;;2.30;99.90;;;;;;5035044;28;20486;-62
2021/01/23 05:31:38;;;;;;;14.00;8.10;;;2.30;99.90;;;;;;5034686;28;20200;-62
2021/01/23 05:34:29;;;;;;;14.07;9.10;;;2.30;99.90;;;;;;5034932;28;20411;-62
2021/01/23 05:36:56;;;;;;;10.10;7.90;;;2.30;99.90;;;;;;5034883;28;20410;-62
2021/01/23 05:39:41;;;;;;;10.03;7.43;;;2.20;99.90;;;;;;5034743;28;20759;-61
2021/01/23 05:42:07;;;;;;;10.52;7.50;;;2.20;99.90;;;;;;5034708;28;20450;-62
2021/01/23 05:44:33;;;;;;;9.93;6.90;;;2.20;99.90;;;;;;5034757;28;20514;-62
2021/01/23 05:46:58;;;;;;;10.67;6.10;;;2.20;99.90;;;;;;5034799;28;20177;-63
2021/01/23 05:49:24;;;;;;;8.40;6.50;;;2.20;99.90;;;;;;5034386;28;20258;-62
2021/01/23 05:51:50;;;;;;;6.87;6.10;;;2.20;99.90;;;;;;5034291;28;20708;-62
2021/01/23 05:54:16;;;;;;;10.20;7.37;;;2.20;99.90;;;;;;5034417;28;20193;-63
2021/01/23 05:56:43;;;;;;;9.70;6.63;;;2.20;99.90;;;;;;5034439;28;20509;-62
2021/01/23 05:59:08;;;;;;;5.47;4.93;;;2.20;99.90;;;;;;5034475;28;20688;-62
2021/01/23 06:01:35;;;;;;;8.23;5.03;;;2.30;99.90;;;;;;5033829;28;20538;-62
2021/01/23 06:04:02;;;;;;;9.07;6.60;;;2.30;99.90;;;;;;5034168;28;20743;-61
2021/01/23 06:06:44;;;;;;;6.70;6.00;;;2.30;99.90;;;;;;5034507;28;20403;-63
2021/01/23 06:09:33;;;;;;;6.17;5.57;;;2.30;99.90;;;;;;5034467;28;20441;-62
2021/01/23 06:11:59;;;;;;;7.03;6.17;;;2.40;99.90;;;;;;5034234;28;20784;-62
2021/01/23 06:14:38;;;;;;;4.63;4.20;;;2.40;99.90;;;;;;5034233;28;20494;-63
2021/01/23 06:17:04;;;;;;;5.93;4.20;;;2.50;99.90;;;;;;5034252;28;20199;-62
2021/01/23 06:19:29;;;;;;;5.70;5.13;;;2.50;99.90;;;;;;5034788;28;20474;-62
2021/01/23 06:21:55;;;;;;;5.33;4.83;;;2.50;99.90;;;;;;5033416;28;20546;-63
2021/01/23 06:24:32;;;;;;;4.97;4.53;;;2.40;99.90;;;;;;5034124;28;20214;-63
2021/01/23 06:26:59;;;;;;;6.73;5.00;;;2.40;99.90;;;;;;5033959;28;20171;-62
2021/01/23 06:29:31;;;;;;;5.80;4.40;;;2.40;99.90;;;;;;5034030;28;20403;-62
2021/01/23 06:31:57;;;;;;;7.50;4.00;;;2.40;99.90;;;;;;5033892;28;20427;-63
2021/01/23 06:34:26;;;;;;;5.27;4.60;;;2.40;99.90;;;;;;5033876;28;20407;-63
2021/01/23 06:37:24;;;;;;;5.23;4.07;;;2.50;99.90;;;;;;5033917;28;20172;-63
2021/01/23 06:40:21;;;;;;;7.17;4.40;;;2.50;99.90;;;;;;5033180;28;20407;-62
2021/01/23 06:42:48;;;;;;;4.30;3.90;;;2.40;99.90;;;;;;5033713;28;20408;-63
2021/01/23 06:45:20;;;;;;;5.43;3.28;;;2.40;99.90;;;;;;5033681;28;20403;-63
2021/01/23 06:47:48;;;;;;;4.47;3.63;;;2.50;99.90;;;;;;5033596;28;20161;-63
2021/01/23 06:50:32;;;;;;;4.50;3.23;;;2.40;99.90;;;;;;5033389;28;20428;-62
2021/01/23 06:52:58;;;;;;;7.43;4.90;;;2.40;99.90;;;;;;5033260;28;20950;-62
2021/01/23 06:55:45;;;;;;;5.23;4.10;;;2.40;99.90;;;;;;5033539;28;20415;-63
2021/01/23 06:58:24;;;;;;;6.30;3.83;;;2.40;99.90;;;;;;5033321;28;20399;-62
2021/01/23 07:00:55;;;;;;;6.03;4.20;;;2.40;99.90;;;;;;5032969;28;20556;-63
2021/01/23 07:03:22;;;;;;;3.70;3.30;;;2.40;99.90;;;;;;5033455;28;20924;-62
2021/01/23 07:05:52;;;;;;;6.40;4.77;;;2.50;99.90;;;;;;5033527;28;20408;-64
2021/01/23 07:08:26;;;;;;;4.80;4.30;;;2.40;99.90;;;;;;5032476;28;20937;-62
2021/01/23 07:11:10;;;;;;;3.93;3.53;;;2.40;99.90;;;;;;5033085;28;20429;-63
2021/01/23 07:13:37;;;;;;;3.93;3.60;;;2.30;99.90;;;;;;5033180;28;20414;-63
2021/01/23 07:16:03;;;;;;;5.13;4.30;;;2.40;99.90;;;;;;5033163;28;20808;-63
2021/01/23 07:18:29;;;;;;;4.07;3.27;;;2.40;99.90;;;;;;5033101;28;20867;-62
2021/01/23 07:20:55;;;;;;;3.87;3.50;;;2.30;99.90;;;;;;5032634;28;20483;-62
2021/01/23 07:23:22;;;;;;;4.27;3.60;;;2.20;99.90;;;;;;5033063;28;20191;-63
2021/01/23 07:25:51;;;;;;;5.80;4.33;;;2.20;99.90;;;;;;5032994;28;20491;-62
2021/01/23 07:28:20;;;;;;;4.80;3.90;;;2.10;99.90;;;;;;5032932;28;20407;-62
2021/01/23 07:30:46;;;;;;;6.97;4.40;;;2.10;99.90;;;;;;5032541;28;20474;-63
2021/01/23 07:33:12;;;;;;;4.40;4.00;;;2.10;99.90;;;;;;5032853;28;20446;-62
2021/01/23 07:35:39;;;;;;;7.33;3.70;;;2.00;99.90;;;;;;5032617;28;20446;-63
2021/01/23 07:38:05;;;;;;;6.30;3.47;;;2.00;99.90;;;;;;5033046;28;20183;-63
2021/01/23 07:40:36;;;;;;;4.60;4.20;;;2.30;99.90;;;;;;5032062;28;20450;-63
2021/01/23 07:43:04;;;;;;;4.67;3.80;;;1.80;99.90;;;;;;5032716;28;20468;-63
2021/01/23 07:45:29;;;;;;;3.53;3.30;;;1.80;99.90;;;;;;5032579;28;20404;-62
2021/01/23 07:47:56;;;;;;;5.13;3.77;;;;;;;;;;5032602;28;20399;-63
2021/01/23 07:50:22;;;;;;;6.40;5.00;;;1.80;99.90;;;;;;5032196;28;20242;-62
2021/01/23 07:52:48;;;;;;;5.57;3.50;;;;;;;;;;5032377;28;20423;-62
2021/01/23 07:55:14;;;;;;;5.77;3.70;;;;;;;;;;5032691;28;20461;-63
2021/01/23 07:57:40;;;;;;;5.60;3.50;;;1.90;99.90;;;;;;5032431;28;20791;-63
2021/01/23 08:00:08;;;;;;;5.10;3.80;;;1.90;99.90;;;;;;5032069;28;20457;-62
2021/01/23 08:02:50;;;;;;;4.33;3.87;;;2.50;99.90;;;;;;5032445;28;20184;-63
2021/01/23 08:05:15;;;;;;;10.88;4.18;;;1.90;99.90;;;;;;5032378;28;20406;-62
2021/01/23 08:07:42;;;;;;;5.47;4.60;;;2.00;99.90;;;;;;5032314;28;20177;-62
2021/01/23 08:10:14;;;;;;;4.83;3.50;;;1.90;99.90;;;;;;5032007;28;20187;-62
2021/01/23 08:12:54;;;;;;;4.93;4.50;;;1.90;99.90;;;;;;5032181;28;20402;-62
2021/01/23 08:15:30;;;;;;;5.70;3.90;;;1.70;99.90;;;;;;5032560;28;20475;-63
2021/01/23 08:17:57;;;;;;;5.07;3.70;;;1.70;99.90;;;;;;5032315;28;20404;-62
2021/01/23 08:20:43;;;;;;;3.90;3.50;;;1.90;99.90;;;;;;5030882;28;20462;-62
2021/01/23 08:23:15;;;;;;;4.47;4.07;;;1.90;99.90;;;;;;5031719;28;20449;-62
2021/01/23 08:25:51;;;;;;;4.10;3.47;;;1.90;99.90;;;;;;5032129;28;20484;-62
2021/01/23 08:28:27;;;;;;;8.15;3.90;;;2.00;99.90;;;;;;5032133;28;20182;-62
2021/01/23 08:30:53;;;;;;;3.63;3.33;;;;;;;;;;5031337;28;20253;-62
2021/01/23 08:33:19;;;;;;;6.23;4.53;;;2.00;99.90;;;;;;5031628;28;20170;-63
2021/01/23 08:35:44;;;;;;;5.13;4.00;;;2.00;99.90;;;;;;5031455;28;20418;-62
2021/01/23 08:38:10;;;;;;;8.73;4.00;;;1.90;99.90;;;;;;5031584;28;20218;-62
2021/01/23 08:40:37;;;;;;;4.77;3.90;;;2.00;99.90;;;;;;5031404;28;20233;-62
2021/01/23 08:43:03;;;;;;;6.10;4.40;;;2.10;99.90;;;;;;5031825;28;20191;-62
2021/01/23 08:45:30;;;;;;;6.03;4.33;;;2.00;99.90;;;;;;5031633;28;20409;-61
2021/01/23 08:47:55;;;;;;;4.55;3.90;;;2.10;99.90;;;;;;5031638;28;20637;-62
2021/01/23 08:50:21;;;;;;;6.50;4.30;;;2.10;99.90;;;;;;5031524;28;20203;-62
2021/01/23 08:52:46;;;;;;;4.00;3.60;;;2.10;99.90;;;;;;5031814;28;20666;-62
2021/01/23 08:55:12;;;;;;;4.03;3.63;;;;;;;;;;5031906;28;20168;-62
2021/01/23 08:57:38;;;;;;;4.93;4.43;;;2.20;99.90;;;;;;5031740;28;20195;-62
2021/01/23 09:00:10;;;;;;;6.40;4.27;;;3.10;99.90;;;;;;5031175;28;20475;-62
2021/01/23 09:02:36;;;;;;;5.22;4.72;;;2.30;99.90;;;;;;5031736;28;20175;-62
2021/01/23 09:05:03;;;;;;;4.20;3.80;;;2.40;99.90;;;;;;5031552;28;20247;-62
2021/01/23 09:07:28;;;;;;;5.30;3.90;;;2.40;99.90;;;;;;5031465;28;20168;-63
2021/01/23 09:09:54;;;;;;;4.80;3.93;;;2.40;99.90;;;;;;5031151;28;20445;-63
2021/01/23 09:12:20;;;;;;;4.33;3.93;;;2.50;99.90;;;;;;5031571;28;20199;-63
2021/01/23 09:14:46;;;;;;;4.10;3.70;;;2.60;99.90;;;;;;5031649;28;20168;-62
2021/01/23 09:17:12;;;;;;;6.03;4.27;;;2.80;99.90;;;;;;5031532;28;20161;-63
2021/01/23 09:19:37;;;;;;;3.93;3.40;;;2.90;99.90;;;;;;5031086;28;20491;-63
2021/01/23 09:22:03;;;;;;;3.83;3.43;;;3.10;99.90;;;;;;5031282;28;20541;-63
2021/01/23 09:24:28;;;;;;;5.47;4.70;;;3.40;99.90;;;;;;5031491;28;20188;-63
2021/01/23 09:26:54;;;;;;;6.53;4.10;;;3.70;99.90;;;;;;5031423;28;20728;-63
2021/01/23 09:29:19;;;;;;;3.73;3.43;;;4.00;99.90;;;;;;5031335;28;20191;-62
2021/01/23 09:31:45;;;;;;;4.50;3.07;;;4.20;99.90;;;;;;5033266;28;20715;-63
2021/01/23 09:34:14;;;;;;;3.60;3.27;;;4.40;99.90;;;;;;5035028;28;20199;-64
2021/01/23 09:36:41;;;;;;;4.90;3.53;;;4.70;99.90;;;;;;5034851;28;20175;-63
2021/01/23 09:39:06;;;;;;;6.10;3.63;;;5.00;99.90;;;;;;5034952;28;20434;-63
2021/01/23 09:41:32;;;;;;;4.67;3.37;;;5.20;99.90;;;;;;5034411;28;20451;-63
2021/01/23 09:43:58;;;;;;;4.03;3.20;;;5.40;99.90;;;;;;5034846;28;20165;-63
2021/01/23 09:46:23;;;;;;;3.17;2.83;;;5.80;99.90;;;;;;5034808;28;20204;-64
2021/01/23 09:48:49;;;;;;;2.83;2.63;;;6.10;99.90;;;;;;5034670;28;20399;-64
2021/01/23 09:51:14;;;;;;;2.87;2.67;;;6.50;99.90;;;;;;5034130;28;20288;-63
2021/01/23 09:53:40;;;;;;;4.40;3.97;;;6.80;98.90;;;;;;5034525;28;20216;-63
2021/01/23 09:56:06;;;;;;;3.97;3.17;;;7.00;97.90;;;;;;5034529;28;20176;-63
2021/01/23 09:58:32;;;;;;;3.03;2.83;;;7.00;97.70;;;;;;5034581;28;20165;-65
2021/01/23 10:00:57;;;;;;;3.77;3.43;;;7.00;98.00;;;;;;5034009;28;20463;-64
2021/01/23 10:03:23;;;;;;;3.57;3.33;;;7.30;97.50;;;;;;5034453;28;20298;-63
2021/01/23 10:05:49;;;;;;;3.63;3.00;;;7.30;96.60;;;;;;5034303;28;20165;-62
2021/01/23 10:08:14;;;;;;;4.07;2.90;;;7.20;96.70;;;;;;5034305;28;20438;-63
2021/01/23 10:10:40;;;;;;;3.50;3.20;;;7.50;96.80;;;;;;5033828;28;20275;-64
2021/01/23 10:13:05;;;;;;;4.00;3.07;;;7.40;95.70;;;;;;5032630;28;20196;-63
2021/01/23 10:15:32;;;;;;;3.70;2.70;;;7.10;96.40;;;;;;5033575;28;20169;-64
2021/01/23 10:18:02;;;;;;;3.03;2.70;;;7.10;97.10;;;;;;5033967;28;20165;-63
2021/01/23 10:20:27;;;;;;;6.83;2.77;;;7.00;95.70;;;;;;5033377;28;20481;-63
2021/01/23 10:22:53;;;;;;;3.80;2.70;;;6.90;96.40;;;;;;5033970;28;20900;-63
2021/01/23 10:25:19;;;;;;;3.47;2.50;;;7.10;96.30;;;;;;5034003;28;20249;-64
2021/01/23 10:27:45;;;;;;;3.03;2.73;;;7.20;95.90;;;;;;5033942;28;20168;-63
2021/01/23 10:30:11;;;;;;;2.20;2.00;;;7.20;96.30;;;;;;5033618;28;20568;-63
2021/01/23 10:32:37;;;;;;;1.57;1.47;;;6.70;95.20;;;;;;5033734;28;21105;-63
2021/01/23 10:35:03;;;;;;;2.40;2.30;;;6.20;99.90;;;;;;5034067;28;20423;-64
2021/01/23 10:37:29;;;;;;;2.53;2.33;;;6.20;96.80;;;;;;5033659;28;20659;-63
2021/01/23 10:39:54;;;;;;;2.87;2.57;;;6.10;96.70;;;;;;5032270;28;20412;-63
2021/01/23 10:42:20;;;;;;;2.03;1.93;;;5.90;97.20;;;;;;5032500;28;20169;-63
2021/01/23 10:44:46;;;;;;;2.43;2.07;;;5.90;97.80;;;;;;5033642;28;20161;-63
2021/01/23 10:47:12;;;;;;;3.07;2.10;;;6.00;99.90;;;;;;5033684;28;20333;-64
2021/01/23 10:49:37;;;;;;;4.57;3.07;;;5.80;97.70;;;;;;5033444;28;20530;-64
2021/01/23 10:52:04;;;;;;;2.83;2.63;;;5.70;97.80;;;;;;5033628;28;20435;-63
2021/01/23 10:54:29;;;;;;;2.33;2.13;;;6.00;98.70;;;;;;5033685;28;20177;-63
2021/01/23 10:56:55;;;;;;;1.93;1.83;;;5.90;99.90;;;;;;5033859;28;20415;-63
2021/01/23 10:59:21;;;;;;;2.73;2.53;;;6.00;99.90;;;;;;5033505;28;20199;-63
2021/01/23 11:01:48;;;;;;;2.77;2.47;;;6.10;98.70;;;;;;5033394;28;20201;-64
2021/01/23 11:04:14;;;;;;;2.17;1.97;;;6.00;97.80;;;;;;5032847;28;20180;-64
2021/01/23 11:06:40;;;;;;;2.93;2.63;;;5.80;98.00;;;;;;5032920;28;20537;-64
2021/01/23 11:09:05;;;;;;;6.60;2.30;;;5.90;98.20;;;;;;5033200;28;20495;-63
2021/01/23 11:11:32;;;;;;;3.03;2.17;;;5.70;98.30;;;;;;5033101;28;20196;-64
2021/01/23 11:13:58;;;;;;;3.07;2.07;;;5.70;98.90;;;;;;5033288;28;20260;-63
2021/01/23 11:16:23;;;;;;;2.50;2.40;;;5.80;98.90;;;;;;5032908;28;20916;-63
2021/01/23 11:18:49;;;;;;;3.43;2.33;;;6.00;98.80;;;;;;5031952;28;20439;-64
2021/01/23 11:21:14;;;;;;;3.30;3.00;;;6.20;98.40;;;;;;5032288;28;20287;-64
2021/01/23 11:23:40;;;;;;;2.27;2.17;;;6.30;98.60;;;;;;5032961;28;20629;-63
2021/01/23 11:26:06;;;;;;;2.30;2.10;;;6.20;98.80;;;;;;5032988;28;20165;-63
2021/01/23 11:28:31;;;;;;;3.87;2.10;;;6.20;97.90;;;;;;5032874;28;20891;-62
2021/01/23 11:30:57;;;;;;;1.60;1.50;;;5.90;98.10;;;;;;5032575;28;20207;-63
2021/01/23 11:33:22;;;;;;;3.07;2.47;;;5.90;98.10;;;;;;5032857;28;20172;-64
2021/01/23 11:35:49;;;;;;;4.13;2.47;;;5.70;97.90;;;;;;5032916;28;20164;-63
2021/01/23 11:38:14;;;;;;;4.10;2.50;;;5.80;98.30;;;;;;5032416;28;20173;-63
2021/01/23 11:40:43;;;;;;;3.50;2.57;;;5.70;97.70;;;;;;5032152;28;20962;-63
2021/01/23 11:43:10;;;;;;;3.10;2.30;;;5.70;98.10;;;;;;5032803;28;20160;-63
2021/01/23 11:45:36;;;;;;;3.80;2.60;;;5.80;98.70;;;;;;5032680;28;20418;-63
2021/01/23 11:48:02;;;;;;;2.83;1.93;;;6.00;98.20;;;;;;5032694;28;20876;-64
2021/01/23 11:50:27;;;;;;;2.80;1.87;;;6.30;98.60;;;;;;5032428;28;20193;-64
2021/01/23 11:52:53;;;;;;;2.40;2.17;;;6.30;97.30;;;;;;5032589;28;20665;-64
2021/01/23 11:55:18;;;;;;;1.90;1.80;;;6.40;98.10;;;;;;5032518;28;20177;-64
2021/01/23 11:57:44;;;;;;;1.97;1.87;;;6.20;97.00;;;;;;5032416;28;20179;-63
2021/01/23 12:00:10;;;;;;;1.90;1.80;;;6.20;97.50;;;;;;5031815;28;20205;-63
2021/01/23 12:02:35;;;;;;;1.80;1.70;;;5.80;97.00;;;;;;5032763;28;20264;-63
2021/01/23 12:05:01;;;;;;;1.33;1.23;;;5.90;99.90;;;;;;5032254;28;20489;-63
2021/01/23 12:07:27;;;;;;;3.00;1.73;;;5.80;98.60;;;;;;5031772;28;20581;-63
2021/01/23 12:09:52;;;;;;;2.90;2.70;;;6.20;98.20;;;;;;5031837;28;20191;-63
2021/01/23 12:12:18;;;;;;;1.43;1.33;;;6.30;97.40;;;;;;5032155;28;20652;-64
2021/01/23 12:14:43;;;;;;;3.27;1.33;;;6.40;97.50;;;;;;5032236;28;20173;-64
2021/01/23 12:17:10;;;;;;;2.90;1.70;;;6.60;96.90;;;;;;5032117;28;20179;-63
2021/01/23 12:19:36;;;;;;;1.37;1.20;;;6.80;97.10;;;;;;5032399;28;20176;-65
2021/01/23 12:22:01;;;;;;;2.20;1.60;;;6.90;96.30;;;;;;5031840;28;20451;-64
2021/01/23 12:24:28;;;;;;;2.93;1.97;;;7.00;96.20;;;;;;5031615;28;20176;-64
2021/01/23 12:26:54;;;;;;;1.43;1.30;;;6.70;96.20;;;;;;5031981;28;20207;-64
2021/01/23 12:29:19;;;;;;;1.70;1.60;;;6.70;96.50;;;;;;5031719;28;20766;-64
2021/01/23 12:31:45;;;;;;;1.63;1.53;;;6.60;95.80;;;;;;5031561;28;20659;-64
2021/01/23 12:34:11;;;;;;;3.23;2.20;;;6.60;96.30;;;;;;5031861;28;20176;-64
2021/01/23 12:36:37;;;;;;;2.90;1.90;;;6.70;96.70;;;;;;5031882;28;20177;-64
2021/01/23 12:39:03;;;;;;;1.43;1.40;;;6.80;96.90;;;;;;5030331;28;20255;-63
2021/01/23 12:41:29;;;;;;;3.23;1.90;;;6.60;96.50;;;;;;5030991;28;20989;-63
2021/01/23 12:43:54;;;;;;;5.93;1.77;;;6.60;96.60;;;;;;5031663;28;20404;-64
2021/01/23 12:46:20;;;;;;;1.97;1.87;;;6.80;97.50;;;;;;5031987;28;20215;-64
2021/01/23 12:48:49;;;;;;;1.67;1.57;;;6.70;96.30;;;;;;5031645;28;20591;-64
2021/01/23 12:51:16;;;;;;;1.40;1.30;;;6.90;96.60;;;;;;5031374;28;20204;-64
2021/01/23 12:53:42;;;;;;;1.60;1.50;;;7.10;97.00;;;;;;5031497;28;20431;-64
2021/01/23 12:56:07;;;;;;;2.60;1.40;;;7.10;95.90;;;;;;5031617;28;20404;-64
2021/01/23 12:58:33;;;;;;;2.27;1.67;;;6.90;95.80;;;;;;5030871;28;20169;-64
2021/01/23 13:00:59;;;;;;;1.73;1.63;;;6.80;95.40;;;;;;5030913;28;20235;-64
2021/01/23 13:03:24;;;;;;;1.80;1.50;;;7.30;96.80;;;;;;5031541;28;20172;-64